Maersk Bali — 9V7499 — position and weather

sailwx.info

Track history (hours):
 
Tides and Currents Weather Stations Pressure Air Temp Water Temp Dewpoint Dewpoint Depression Visibility Wind Speed Wind Dir Waves Ship Positions

Maersk Bali

Last reported at 2014-Aug-13 13:23 UTC. Time now 2014-Sep-03 04:49 UTC.
Position N 35°54' W 009°34'.
Warning: this ship's position is 20 days out of date.

Length 223 m; draft 8.5 m.

Type: Cargo ship. MMSI: 563102000.

Date/timePositionNaut miles runAvg speedWind from/ knotsBaromVisibWave heightAir tempDewpointWater temp
2014-Aug-13 13:23N 35°54' W 009°34'  
2014-Aug-10 20:12N 36°27' W 002°06'710.9
2014-Aug-10 19:33N 36°29' W 001°58'4310.7
2014-Aug-10 15:31N 36°42' W 001°06'1010.7
2014-Aug-10 14:34N 36°45' W 000°54'1110.7
2014-Aug-10 13:33N 36°48' W 000°41'1110.6
2014-Aug-10 12:32N 36°51' W 000°28'1010.3
2014-Aug-10 11:33N 36°54' W 000°16'1110.6
2014-Aug-10 10:31N 36°57' W 000°03'1010.7
2014-Aug-10 09:33N 37°00' E 000°09'1111.0
2014-Aug-10 08:33N 37°04' E 000°22'2211.1
2014-Aug-10 06:33N 37°10' E 000°49'1111.0
2014-Aug-10 05:33N 37°14' E 001°02'1111.0
2014-Aug-10 04:32N 37°17' E 001°15'1111.2
2014-Aug-10 03:33N 37°20' E 001°29'1311.0
2014-Aug-10 02:22N 37°24' E 001°44'910.9
2014-Aug-10 01:33N 37°27' E 001°55'2211.0
2014-Aug-09 23:33N 37°33' E 002°22'1111.2
2014-Aug-09 22:33N 37°37' E 002°35'1111.2
2014-Aug-09 21:33N 37°40' E 002°49'1111.3
2014-Aug-09 20:33N 37°40' E 003°03'1111.4
2014-Aug-09 19:33N 37°40' E 003°17'1111.4
2014-Aug-09 18:33N 37°40' E 003°32'1211.7
2014-Aug-09 17:33N 37°40' E 003°46'1211.9
2014-Aug-09 16:33N 37°39' E 004°02'1211.9
2014-Aug-09 15:33N 37°39' E 004°17'1312.5
2014-Aug-09 14:33N 37°39' E 004°32'1211.7
2014-Aug-09 13:33N 37°39' E 004°47'1212.2
2014-Aug-09 12:33N 37°39' E 005°02'1312.8
2014-Aug-09 11:32N 37°39' E 005°19'1413.6
2014-Aug-09 10:31N 37°39' E 005°36'1313.7
2014-Aug-09 09:33N 37°39' E 005°53'1413.6
2014-Aug-09 08:33N 37°38' E 006°10'1313.3
2014-Aug-09 07:33N 37°38' E 006°27'1312.8
2014-Aug-09 06:33N 37°38' E 006°43'1512.9
2014-Aug-09 05:22N 37°38' E 007°03'1012.0
2014-Aug-09 04:33N 37°38' E 007°15'1212.6
2014-Aug-09 03:33N 37°38' E 007°31'7013.1
2014-Aug-08 22:15N 37°37' E 008°59'2011.9
2014-Aug-08 20:33N 37°38' E 009°24'1211.7
2014-Aug-08 19:33N 37°38' E 009°39'1212.0
2014-Aug-08 18:33N 37°38' E 009°54'1412.1
2014-Aug-08 17:26N 37°39' E 010°11'1112.2
2014-Aug-08 16:33N 37°38' E 010°24'1212.5
2014-Aug-08 15:33N 37°36' E 010°40'1412.3
2014-Aug-08 14:23N 37°32' E 010°57'1011.9
2014-Aug-08 13:33N 37°28' E 011°09'11412.5
2014-Aug-08 04:29N 36°40' E 013°18'1212.6
2014-Aug-08 03:33N 36°36' E 013°31'1313.0
2014-Aug-08 02:33N 36°32' E 013°47'1313.2
2014-Aug-08 01:33N 36°27' E 014°02'1313.1
2014-Aug-08 00:33N 36°23' E 014°17'1313.0
2014-Aug-07 23:33N 36°19' E 014°33'1613.1
2014-Aug-07 22:22N 36°18' E 014°52'4112.6
2014-Aug-07 19:08N 36°17' E 015°42'35212.3
2014-Aug-06 14:33N 36°01' E 022°57'1812.2
2014-Aug-06 13:07N 36°09' E 023°16'2212.9
2014-Aug-06 11:25N 36°29' E 023°29'1312.8
2014-Aug-06 10:23N 36°40' E 023°36'1312.9
2014-Aug-06 09:24N 36°52' E 023°43'1213.5
2014-Aug-06 08:33N 37°02' E 023°49'1413.8
2014-Aug-06 07:33N 37°15' E 023°57'1312.8
2014-Aug-06 06:32N 37°27' E 024°03'1111.1
2014-Aug-06 05:32N 37°36' E 024°10'1411.5
2014-Aug-06 04:17N 37°48' E 024°21'1111.6
2014-Aug-06 03:19N 37°54' E 024°33'4611.9
2014-Aug-05 23:26N 38°30' E 025°10'2311.4
2014-Aug-05 21:23N 38°46' E 025°32'910.8
2014-Aug-05 20:33N 38°46' E 025°44'15 0.5
2014-Aug-04 15:20N 38°58' E 025°56'4910.2
2014-Aug-04 10:32N 39°46' E 025°49'1212.1
2014-Aug-04 09:33N 39°57' E 025°55'16711.9
2014-Aug-03 19:33N 40°45' E 029°24'  
Track history (hours):
 
Tides and Currents Weather Stations Pressure Air Temp Water Temp Dewpoint Dewpoint Depression Visibility Wind Speed Wind Dir Waves Ship Positions

Maersk Bali

Last reported at 2014-Aug-13 13:23 UTC. Time now 2014-Sep-03 04:49 UTC.
Position N 35°54' W 009°34'.
Warning: this ship's position is 20 days out of date.

Length 223 m; draft 8.5 m.

Type: Cargo ship. MMSI: 563102000.

Date/timePositionNaut miles runAvg speedWind from/ knotsBaromVisibWave heightAir tempDewpointWater temp
2014-Aug-13 13:23N 35°54' W 009°34'  
2014-Aug-10 20:12N 36°27' W 002°06'710.9
2014-Aug-10 19:33N 36°29' W 001°58'4310.7
2014-Aug-10 15:31N 36°42' W 001°06'1010.7
2014-Aug-10 14:34N 36°45' W 000°54'1110.7
2014-Aug-10 13:33N 36°48' W 000°41'1110.6
2014-Aug-10 12:32N 36°51' W 000°28'1010.3
2014-Aug-10 11:33N 36°54' W 000°16'1110.6
2014-Aug-10 10:31N 36°57' W 000°03'1010.7
2014-Aug-10 09:33N 37°00' E 000°09'1111.0
2014-Aug-10 08:33N 37°04' E 000°22'2211.1
2014-Aug-10 06:33N 37°10' E 000°49'1111.0
2014-Aug-10 05:33N 37°14' E 001°02'1111.0
2014-Aug-10 04:32N 37°17' E 001°15'1111.2
2014-Aug-10 03:33N 37°20' E 001°29'1311.0
2014-Aug-10 02:22N 37°24' E 001°44'910.9
2014-Aug-10 01:33N 37°27' E 001°55'2211.0
2014-Aug-09 23:33N 37°33' E 002°22'1111.2
2014-Aug-09 22:33N 37°37' E 002°35'1111.2
2014-Aug-09 21:33N 37°40' E 002°49'1111.3
2014-Aug-09 20:33N 37°40' E 003°03'1111.4
2014-Aug-09 19:33N 37°40' E 003°17'1111.4
2014-Aug-09 18:33N 37°40' E 003°32'1211.7
2014-Aug-09 17:33N 37°40' E 003°46'1211.9
2014-Aug-09 16:33N 37°39' E 004°02'1211.9
2014-Aug-09 15:33N 37°39' E 004°17'1312.5
2014-Aug-09 14:33N 37°39' E 004°32'1211.7
2014-Aug-09 13:33N 37°39' E 004°47'1212.2
2014-Aug-09 12:33N 37°39' E 005°02'1312.8
2014-Aug-09 11:32N 37°39' E 005°19'1413.6
2014-Aug-09 10:31N 37°39' E 005°36'1313.7
2014-Aug-09 09:33N 37°39' E 005°53'1413.6
2014-Aug-09 08:33N 37°38' E 006°10'1313.3
2014-Aug-09 07:33N 37°38' E 006°27'1312.8
2014-Aug-09 06:33N 37°38' E 006°43'1512.9
2014-Aug-09 05:22N 37°38' E 007°03'1012.0
2014-Aug-09 04:33N 37°38' E 007°15'1212.6
2014-Aug-09 03:33N 37°38' E 007°31'7013.1
2014-Aug-08 22:15N 37°37' E 008°59'2011.9
2014-Aug-08 20:33N 37°38' E 009°24'1211.7
2014-Aug-08 19:33N 37°38' E 009°39'1212.0
2014-Aug-08 18:33N 37°38' E 009°54'1412.1
2014-Aug-08 17:26N 37°39' E 010°11'1112.2
2014-Aug-08 16:33N 37°38' E 010°24'1212.5
2014-Aug-08 15:33N 37°36' E 010°40'1412.3
2014-Aug-08 14:23N 37°32' E 010°57'1011.9
2014-Aug-08 13:33N 37°28' E 011°09'11412.5
2014-Aug-08 04:29N 36°40' E 013°18'1212.6
2014-Aug-08 03:33N 36°36' E 013°31'1313.0
2014-Aug-08 02:33N 36°32' E 013°47'1313.2
2014-Aug-08 01:33N 36°27' E 014°02'1313.1
2014-Aug-08 00:33N 36°23' E 014°17'1313.0
2014-Aug-07 23:33N 36°19' E 014°33'1613.1
2014-Aug-07 22:22N 36°18' E 014°52'4112.6
2014-Aug-07 19:08N 36°17' E 015°42'35212.3
2014-Aug-06 14:33N 36°01' E 022°57'1812.2
2014-Aug-06 13:07N 36°09' E 023°16'2212.9
2014-Aug-06 11:25N 36°29' E 023°29'1312.8
2014-Aug-06 10:23N 36°40' E 023°36'1312.9
2014-Aug-06 09:24N 36°52' E 023°43'1213.5
2014-Aug-06 08:33N 37°02' E 023°49'1413.8
2014-Aug-06 07:33N 37°15' E 023°57'1312.8
2014-Aug-06 06:32N 37°27' E 024°03'1111.1
2014-Aug-06 05:32N 37°36' E 024°10'1411.5
2014-Aug-06 04:17N 37°48' E 024°21'1111.6
2014-Aug-06 03:19N 37°54' E 024°33'4611.9
2014-Aug-05 23:26N 38°30' E 025°10'2311.4
2014-Aug-05 21:23N 38°46' E 025°32'910.8
2014-Aug-05 20:33N 38°46' E 025°44'15 0.5
2014-Aug-04 15:20N 38°58' E 025°56'4910.2
2014-Aug-04 10:32N 39°46' E 025°49'1212.1
2014-Aug-04 09:33N 39°57' E 025°55'16711.9
2014-Aug-03 19:33N 40°45' E 029°24'  

Dump ship's entire track history